Time;durP1;ratioP1;P1;durP2;ratioP2;P2;SDS_P1;SDS_P2;PMS_P1;PMS_P2;Temp;Humidity;BMP_temperature;BMP_pressure;BME280_temperature;BME280_humidity;BME280_pressure;Samples;Min_cycle;Max_cycle;Signal;HPM_P1;HPM_P2
2021/11/10 00:00:11;;;;;;;4.60;2.80;;;1.60;70.00;;;;;;5033983;28;20021;-69
2021/11/10 00:02:37;;;;;;;4.70;2.70;;;1.60;70.30;;;;;;5035108;28;20459;-69
2021/11/10 00:05:04;;;;;;;4.57;2.80;;;1.50;70.50;;;;;;5035320;28;20143;-69
2021/11/10 00:07:30;;;;;;;5.78;2.88;;;1.50;70.80;;;;;;5033841;28;20025;-69
2021/11/10 00:09:56;;;;;;;4.22;3.03;;;1.40;71.00;;;;;;5021511;28;20456;-69
2021/11/10 00:12:22;;;;;;;4.85;3.30;;;1.40;71.30;;;;;;5035486;28;20037;-69
2021/11/10 00:14:47;;;;;;;5.18;3.58;;;1.40;71.50;;;;;;5033345;28;20053;-69
2021/11/10 00:17:14;;;;;;;4.82;3.22;;;1.40;71.60;;;;;;5035248;28;20029;-69
2021/11/10 00:19:39;;;;;;;4.25;3.28;;;1.40;71.70;;;;;;5034974;28;20024;-69
2021/11/10 00:22:05;;;;;;;5.57;3.40;;;1.30;71.90;;;;;;5033829;28;20116;-69
2021/11/10 00:24:31;;;;;;;4.50;2.78;;;1.30;72.10;;;;;;5033495;28;20069;-71
2021/11/10 00:26:56;;;;;;;4.80;3.03;;;1.20;72.10;;;;;;5033413;28;20032;-69
2021/11/10 00:29:22;;;;;;;4.53;2.95;;;1.20;72.40;;;;;;5034975;28;20026;-69
2021/11/10 00:31:48;;;;;;;4.45;3.20;;;1.20;72.60;;;;;;5034683;28;20097;-68
2021/11/10 00:34:14;;;;;;;4.85;3.35;;;1.20;72.90;;;;;;5034983;28;20021;-68
2021/11/10 00:36:39;;;;;;;5.43;3.40;;;1.20;72.90;;;;;;5043305;28;20025;-72
2021/11/10 00:39:06;;;;;;;3.95;2.88;;;1.10;73.00;;;;;;5043161;28;20053;-68
2021/11/10 00:41:32;;;;;;;5.28;3.50;;;1.10;73.10;;;;;;5033508;28;20190;-70
2021/11/10 00:44:01;;;;;;;7.22;3.33;;;1.10;73.30;;;;;;5033354;28;20467;-69
2021/11/10 00:46:29;;;;;;;3.88;2.83;;;1.10;73.50;;;;;;5033331;28;20034;-70
2021/11/10 00:48:55;;;;;;;4.18;3.05;;;1.10;73.60;;;;;;5033531;28;20021;-69
2021/11/10 00:51:20;;;;;;;4.38;3.00;;;1.00;73.70;;;;;;5034433;28;20025;-69
2021/11/10 00:53:46;;;;;;;4.63;3.28;;;1.00;73.90;;;;;;5034184;28;20022;-69
2021/11/10 00:56:12;;;;;;;4.70;3.50;;;1.00;74.10;;;;;;5034283;28;20022;-69
2021/11/10 00:58:37;;;;;;;4.60;3.47;;;1.00;74.20;;;;;;5034593;28;20111;-69
2021/11/10 01:01:03;;;;;;;5.90;3.47;;;1.00;74.30;;;;;;5032951;28;20483;-70
2021/11/10 01:03:29;;;;;;;5.45;3.03;;;1.00;74.30;;;;;;5033019;28;20017;-69
2021/11/10 01:05:57;;;;;;;4.32;3.08;;;1.00;74.30;;;;;;5032772;28;20029;-70
2021/11/10 01:08:23;;;;;;;4.10;3.00;;;1.00;74.40;;;;;;5032947;28;20036;-70
2021/11/10 01:10:49;;;;;;;5.07;3.45;;;0.90;74.30;;;;;;5031635;28;20505;-71
2021/11/10 01:13:15;;;;;;;5.75;3.30;;;0.90;74.40;;;;;;5019944;28;20448;-70
2021/11/10 01:15:42;;;;;;;5.10;3.85;;;0.90;74.60;;;;;;5033988;28;20029;-70
2021/11/10 01:18:08;;;;;;;4.60;3.47;;;0.90;74.80;;;;;;5032679;28;20074;-68
2021/11/10 01:20:35;;;;;;;4.80;3.35;;;0.80;74.90;;;;;;5032761;28;20382;-68
2021/11/10 01:23:01;;;;;;;5.07;3.53;;;0.80;75.10;;;;;;5032097;28;20025;-68
2021/11/10 01:25:27;;;;;;;4.32;3.08;;;0.80;75.10;;;;;;5033782;28;20390;-69
2021/11/10 01:27:54;;;;;;;5.15;3.42;;;0.80;75.30;;;;;;5032851;28;20029;-68
2021/11/10 01:30:21;;;;;;;6.13;3.72;;;0.80;75.60;;;;;;5037107;28;20085;-68
2021/11/10 01:32:47;;;;;;;4.95;3.28;;;0.70;75.70;;;;;;5043191;28;20410;-69
2021/11/10 01:35:13;;;;;;;5.05;3.53;;;0.70;75.80;;;;;;5038301;28;20071;-68
2021/11/10 01:37:39;;;;;;;5.05;3.47;;;0.70;75.80;;;;;;5033790;28;20025;-68
2021/11/10 01:40:06;;;;;;;4.85;3.38;;;0.70;76.00;;;;;;5032090;28;20030;-70
2021/11/10 01:42:31;;;;;;;6.20;3.60;;;0.70;76.10;;;;;;5032165;28;20029;-68
2021/11/10 01:44:58;;;;;;;5.75;4.07;;;0.70;76.30;;;;;;5031982;28;20030;-69
2021/11/10 01:47:24;;;;;;;7.05;4.20;;;0.70;76.40;;;;;;5033510;28;20155;-68
2021/11/10 01:49:50;;;;;;;5.38;3.70;;;0.60;76.50;;;;;;5032226;28;20525;-68
2021/11/10 01:52:16;;;;;;;4.32;3.50;;;0.60;76.60;;;;;;5033441;28;20102;-68
2021/11/10 01:54:43;;;;;;;5.60;3.97;;;0.60;76.70;;;;;;5031693;28;20021;-68
2021/11/10 01:57:11;;;;;;;6.10;3.65;;;0.60;77.30;;;;;;5032989;28;20567;-68
2021/11/10 02:00:00;;;;;;;5.90;4.10;;;0.60;77.00;;;;;;5032443;28;20025;-68
2021/11/10 02:02:29;;;;;;;5.45;3.90;;;0.60;77.30;;;;;;5031846;28;20017;-69
2021/11/10 02:04:55;;;;;;;5.60;3.80;;;0.50;77.30;;;;;;5033017;28;20056;-69
2021/11/10 02:07:22;;;;;;;6.15;4.10;;;0.50;77.40;;;;;;5032827;28;20132;-69
2021/11/10 02:09:49;;;;;;;4.78;3.70;;;0.50;77.60;;;;;;5032979;28;20025;-69
2021/11/10 02:12:16;;;;;;;5.38;4.15;;;0.60;77.80;;;;;;5029747;28;20029;-70
2021/11/10 02:14:43;;;;;;;5.60;3.75;;;0.50;77.90;;;;;;5021421;28;20018;-69
2021/11/10 02:17:13;;;;;;;6.75;4.13;;;0.50;78.00;;;;;;5021430;28;20155;-68
2021/11/10 02:19:39;;;;;;;5.40;4.10;;;0.50;78.10;;;;;;5022908;28;20026;-69
2021/11/10 02:22:05;;;;;;;5.72;4.25;;;0.50;78.30;;;;;;5027794;28;20018;-69
2021/11/10 02:24:32;;;;;;;5.85;4.32;;;0.50;78.40;;;;;;5052458;28;20359;-69
2021/11/10 02:26:58;;;;;;;7.55;4.70;;;0.50;78.60;;;;;;5020133;28;20089;-68
2021/11/10 02:29:27;;;;;;;5.97;4.25;;;0.50;78.60;;;;;;5018320;28;20348;-68
2021/11/10 02:31:54;;;;;;;5.22;3.83;;;0.50;79.30;;;;;;5011857;28;20022;-68
2021/11/10 02:34:21;;;;;;;5.70;4.13;;;0.50;78.90;;;;;;5013320;28;20038;-68
2021/11/10 02:36:46;;;;;;;5.72;4.43;;;0.40;79.00;;;;;;5011730;28;20060;-68
2021/11/10 02:39:18;;;;;;;5.85;4.38;;;0.40;79.20;;;;;;5013276;28;20053;-69
2021/11/10 02:41:47;;;;;;;5.88;4.43;;;0.40;79.20;;;;;;5044883;28;20018;-69
2021/11/10 02:44:16;;;;;;;7.10;4.43;;;0.40;79.20;;;;;;5013378;28;20038;-68
2021/11/10 02:46:43;;;;;;;5.20;3.95;;;0.40;79.30;;;;;;5024299;28;20028;-70
2021/11/10 02:49:09;;;;;;;9.70;4.47;;;0.30;79.30;;;;;;5022081;28;20532;-69
2021/11/10 02:51:35;;;;;;;7.43;4.28;;;0.40;79.40;;;;;;5027049;28;20101;-69
2021/11/10 02:54:07;;;;;;;6.07;4.13;;;0.30;79.40;;;;;;5013180;28;20029;-69
2021/11/10 02:56:33;;;;;;;8.40;4.82;;;0.30;79.50;;;;;;5013012;28;20014;-69
2021/11/10 02:58:58;;;;;;;5.88;4.60;;;0.30;79.70;;;;;;5012755;28;20262;-69
2021/11/10 03:01:24;;;;;;;6.20;4.78;;;0.30;79.70;;;;;;5044588;28;20349;-69
2021/11/10 03:03:50;;;;;;;7.00;4.80;;;0.30;79.70;;;;;;5012221;28;20022;-69
2021/11/10 03:06:15;;;;;;;6.28;4.38;;;0.30;79.70;;;;;;5012184;28;20452;-69
2021/11/10 03:08:42;;;;;;;6.82;4.75;;;0.30;79.70;;;;;;5012597;28;20368;-69
2021/11/10 03:11:08;;;;;;;7.25;4.53;;;0.30;79.80;;;;;;5013814;28;20077;-69
2021/11/10 03:13:39;;;;;;;7.28;4.50;;;0.20;79.90;;;;;;5016661;28;20475;-69
2021/11/10 03:16:04;;;;;;;6.60;4.53;;;0.30;80.00;;;;;;5027332;28;20060;-69
2021/11/10 03:18:30;;;;;;;6.05;4.40;;;0.30;80.00;;;;;;5019963;28;20077;-69
2021/11/10 03:20:56;;;;;;;6.68;4.80;;;0.30;80.00;;;;;;5021112;28;20025;-70
2021/11/10 03:23:21;;;;;;;8.00;4.80;;;0.30;80.10;;;;;;5057830;28;20022;-70
2021/11/10 03:25:47;;;;;;;6.20;4.55;;;0.20;80.20;;;;;;5053536;28;20032;-69
2021/11/10 03:28:13;;;;;;;6.30;4.30;;;0.20;80.40;;;;;;5048274;28;20026;-69
2021/11/10 03:30:39;;;;;;;8.27;6.05;;;0.20;80.50;;;;;;5014913;28;20096;-71
2021/11/10 03:33:04;;;;;;;6.72;4.72;;;0.20;80.50;;;;;;5015004;28;20452;-69
2021/11/10 03:35:30;;;;;;;7.65;4.88;;;0.20;80.60;;;;;;5014987;28;20022;-69
2021/11/10 03:37:56;;;;;;;7.28;4.75;;;0.20;80.70;;;;;;5016173;28;20478;-69
2021/11/10 03:40:22;;;;;;;5.43;4.05;;;0.20;80.80;;;;;;5029471;28;20024;-69
2021/11/10 03:42:47;;;;;;;8.48;4.72;;;0.20;80.90;;;;;;5014964;28;20460;-70
2021/11/10 03:45:13;;;;;;;5.55;4.50;;;0.10;80.80;;;;;;5016291;28;20079;-69
2021/11/10 03:47:39;;;;;;;7.40;4.70;;;0.10;80.80;;;;;;5014571;28;20108;-69
2021/11/10 03:50:06;;;;;;;6.32;4.68;;;0.10;80.80;;;;;;5016218;28;20022;-69
2021/11/10 03:52:32;;;;;;;6.47;4.50;;;0.10;80.90;;;;;;5014598;28;20475;-70
2021/11/10 03:54:58;;;;;;;6.40;4.25;;;0.10;80.90;;;;;;5047601;28;20460;-69
2021/11/10 03:57:23;;;;;;;6.35;4.50;;;0.10;80.90;;;;;;5015638;28;20037;-69
2021/11/10 03:59:49;;;;;;;7.07;4.97;;;0.10;81.00;;;;;;5047899;28;20030;-69
2021/11/10 04:02:15;;;;;;;6.10;4.85;;;0.10;81.00;;;;;;5021961;28;20105;-69
2021/11/10 04:04:41;;;;;;;7.05;4.80;;;0.10;81.10;;;;;;5014142;28;20109;-69
2021/11/10 04:07:06;;;;;;;7.60;5.32;;;0.10;81.30;;;;;;5015713;28;20022;-69
2021/11/10 04:09:32;;;;;;;9.38;5.90;;;0.00;81.40;;;;;;5014227;28;20076;-69
2021/11/10 04:11:58;;;;;;;8.23;6.43;;;0.00;81.40;;;;;;5022067;28;20021;-69
2021/11/10 04:14:23;;;;;;;8.20;6.20;;;0.00;81.60;;;;;;5021229;28;20372;-69
2021/11/10 04:16:49;;;;;;;7.93;5.43;;;0.00;81.80;;;;;;5068292;28;20028;-69
2021/11/10 04:19:15;;;;;;;7.82;5.13;;;0.00;81.90;;;;;;5026417;28;20083;-69
2021/11/10 04:21:41;;;;;;;7.85;5.00;;;0.00;82.10;;;;;;5032587;28;20017;-70
2021/11/10 04:24:08;;;;;;;8.10;5.05;;;0.00;82.20;;;;;;5014637;28;20017;-69
2021/11/10 04:26:39;;;;;;;6.93;5.10;;;0.00;82.40;;;;;;5013756;28;20483;-70
2021/11/10 04:29:06;;;;;;;8.45;5.20;;;-0.10;82.60;;;;;;5014695;28;20368;-69
2021/11/10 04:31:32;;;;;;;6.72;5.40;;;-0.10;82.70;;;;;;5015150;28;20421;-69
2021/11/10 04:33:58;;;;;;;6.97;5.10;;;-0.10;82.90;;;;;;5028914;28;20463;-70
2021/11/10 04:36:25;;;;;;;7.60;5.40;;;-0.10;83.10;;;;;;5013809;28;20032;-70
2021/11/10 04:38:51;;;;;;;7.18;4.82;;;-0.10;83.10;;;;;;5013049;28;20451;-69
2021/11/10 04:41:18;;;;;;;8.05;5.60;;;-0.10;83.20;;;;;;5013505;28;20037;-70
2021/11/10 04:43:44;;;;;;;6.97;4.50;;;-0.10;83.20;;;;;;5015231;28;20044;-69
2021/11/10 04:46:18;;;;;;;7.43;4.95;;;-0.10;83.20;;;;;;5014855;28;20034;-70
2021/11/10 04:48:45;;;;;;;9.55;5.95;;;-0.20;83.30;;;;;;5014906;28;20092;-70
2021/11/10 04:51:12;;;;;;;14.48;6.43;;;-0.10;83.30;;;;;;5013294;28;20032;-70
2021/11/10 04:53:39;;;;;;;8.45;5.70;;;-0.20;83.40;;;;;;5013371;28;20026;-70
2021/11/10 04:56:06;;;;;;;8.43;5.65;;;-0.20;83.40;;;;;;5014349;28;20057;-69
2021/11/10 04:58:32;;;;;;;8.88;5.63;;;-0.10;83.40;;;;;;5046899;28;20076;-69
2021/11/10 05:00:58;;;;;;;7.90;5.45;;;-0.10;84.30;;;;;;5012862;28;20022;-70
2021/11/10 05:03:24;;;;;;;7.50;5.43;;;0.00;84.40;;;;;;5014636;28;20092;-71
2021/11/10 05:05:50;;;;;;;8.38;5.63;;;0.30;84.50;;;;;;5046216;28;20057;-69
2021/11/10 05:08:16;;;;;;;8.40;5.47;;;0.50;84.10;;;;;;5013907;28;20022;-70
2021/11/10 05:10:42;;;;;;;8.95;5.60;;;0.80;83.70;;;;;;5027385;28;20029;-69
2021/11/10 05:13:08;;;;;;;6.63;4.60;;;1.10;83.00;;;;;;5029933;28;20061;-69
2021/11/10 05:15:34;;;;;;;7.90;4.97;;;1.50;82.10;;;;;;5059505;28;20029;-70
2021/11/10 05:18:01;;;;;;;6.65;4.70;;;1.80;81.10;;;;;;5019620;28;20060;-71
2021/11/10 05:20:27;;;;;;;5.53;4.28;;;2.20;80.20;;;;;;5033326;28;20224;-71
2021/11/10 05:22:53;;;;;;;7.82;4.53;;;2.60;79.00;;;;;;5030050;28;20064;-71
2021/11/10 05:25:18;;;;;;;7.10;4.68;;;3.00;77.60;;;;;;5032247;28;20100;-70
2021/11/10 05:27:44;;;;;;;7.32;4.68;;;3.40;76.30;;;;;;5031802;28;20441;-69
2021/11/10 05:30:12;;;;;;;8.20;4.43;;;3.80;75.00;;;;;;5032117;28;20020;-69
2021/11/10 05:32:42;;;;;;;6.40;4.53;;;4.20;73.60;;;;;;5025184;28;20483;-69
2021/11/10 05:35:09;;;;;;;6.82;4.50;;;4.60;72.10;;;;;;5028407;28;20033;-70
2021/11/10 05:37:35;;;;;;;7.43;4.63;;;5.00;70.70;;;;;;5031512;28;20152;-70
2021/11/10 05:40:00;;;;;;;7.78;4.57;;;5.30;69.70;;;;;;5031602;28;20484;-69
2021/11/10 05:42:27;;;;;;;7.55;4.22;;;5.60;68.80;;;;;;5030700;28;20419;-69
2021/11/10 05:44:54;;;;;;;6.45;4.22;;;6.00;67.70;;;;;;5029756;28;20106;-70
2021/11/10 05:47:20;;;;;;;8.50;4.28;;;6.40;66.70;;;;;;5025813;28;20083;-70
2021/11/10 05:49:46;;;;;;;8.45;5.30;;;6.80;65.80;;;;;;5016217;28;20021;-69
2021/11/10 05:52:12;;;;;;;11.80;6.03;;;7.30;64.50;;;;;;5024979;28;20037;-70
2021/11/10 05:54:39;;;;;;;12.50;5.68;;;7.60;63.10;;;;;;5031864;28;20076;-69
2021/11/10 05:57:06;;;;;;;8.25;4.75;;;7.80;62.40;;;;;;5029221;28;20017;-70
2021/11/10 05:59:33;;;;;;;9.13;5.07;;;8.20;61.50;;;;;;5027219;28;20021;-70
2021/11/10 06:02:00;;;;;;;7.95;4.80;;;8.40;60.40;;;;;;5027181;28;20108;-70
2021/11/10 06:04:26;;;;;;;8.32;4.43;;;8.60;59.50;;;;;;5042755;28;20022;-72
2021/11/10 06:06:52;;;;;;;9.75;4.97;;;9.00;58.60;;;;;;5033921;28;20041;-74
2021/11/10 06:09:18;;;;;;;6.15;4.13;;;9.20;57.30;;;;;;5036651;28;20025;-73
2021/11/10 06:11:45;;;;;;;6.93;4.63;;;9.40;56.80;;;;;;5038226;28;20083;-69
2021/11/10 06:14:11;;;;;;;6.95;4.88;;;9.60;56.00;;;;;;5031516;28;20029;-75
2021/11/10 06:16:37;;;;;;;7.10;3.90;;;9.70;55.50;;;;;;5029086;28;20033;-73
2021/11/10 06:19:03;;;;;;;6.18;3.95;;;9.90;54.90;;;;;;5031830;28;20344;-72
2021/11/10 06:21:28;;;;;;;5.22;3.50;;;10.10;54.30;;;;;;5031916;28;20025;-73
2021/11/10 06:23:54;;;;;;;5.38;3.72;;;10.30;54.00;;;;;;5030706;28;20029;-72
2021/11/10 06:26:20;;;;;;;7.35;4.07;;;10.50;53.40;;;;;;5025844;28;20159;-68
2021/11/10 06:28:47;;;;;;;7.30;3.90;;;10.70;52.70;;;;;;5030091;28;20057;-71
2021/11/10 06:31:14;;;;;;;8.15;4.43;;;10.80;52.30;;;;;;5026162;28;20056;-71
2021/11/10 06:33:40;;;;;;;6.43;3.80;;;10.90;51.90;;;;;;5022616;28;20025;-71
2021/11/10 06:36:06;;;;;;;14.93;4.30;;;11.00;51.60;;;;;;5025831;28;20072;-72
2021/11/10 06:38:32;;;;;;;9.07;4.85;;;11.10;51.30;;;;;;5022835;28;20068;-71
2021/11/10 06:40:58;;;;;;;8.93;4.45;;;11.40;51.00;;;;;;5025205;28;20076;-72
2021/11/10 06:43:28;;;;;;;6.78;3.40;;;11.60;50.50;;;;;;5028578;28;20073;-71
2021/11/10 06:45:54;;;;;;;6.43;3.60;;;11.60;50.00;;;;;;5021891;28;20091;-73
2021/11/10 06:48:20;;;;;;;6.82;3.80;;;11.70;49.70;;;;;;5027045;28;20025;-70
2021/11/10 06:50:46;;;;;;;6.22;3.70;;;12.00;49.60;;;;;;5027806;28;20060;-70
2021/11/10 06:53:11;;;;;;;6.15;3.72;;;12.20;48.80;;;;;;5028274;28;20456;-69
2021/11/10 06:55:37;;;;;;;7.05;4.03;;;12.30;48.60;;;;;;5021684;28;20037;-70
2021/11/10 06:58:04;;;;;;;5.68;4.03;;;12.50;48.30;;;;;;5031094;28;20036;-70
2021/11/10 07:00:30;;;;;;;5.78;3.60;;;12.80;47.60;;;;;;5029699;28;20018;-69
2021/11/10 07:02:57;;;;;;;5.72;3.60;;;12.90;46.90;;;;;;5031152;28;20018;-71
2021/11/10 07:05:23;;;;;;;5.80;3.35;;;12.90;46.70;;;;;;5033056;28;20025;-68
2021/11/10 07:07:48;;;;;;;5.35;3.40;;;13.10;46.70;;;;;;5030837;28;20025;-70
2021/11/10 07:10:14;;;;;;;5.70;3.95;;;13.30;46.60;;;;;;5021308;28;20036;-69
2021/11/10 07:12:40;;;;;;;5.53;3.53;;;13.50;45.90;;;;;;5029868;28;20032;-72
2021/11/10 07:15:06;;;;;;;5.22;3.55;;;13.50;45.50;;;;;;5024496;28;20423;-69
2021/11/10 07:17:33;;;;;;;5.35;3.30;;;13.50;45.10;;;;;;5027074;28;20026;-69
2021/11/10 07:19:58;;;;;;;3.78;2.80;;;13.60;44.70;;;;;;5033750;28;20021;-70
2021/11/10 07:22:24;;;;;;;5.43;3.00;;;13.70;44.20;;;;;;5035970;28;20021;-69
2021/11/10 07:24:50;;;;;;;4.22;2.90;;;13.70;43.90;;;;;;5025660;28;20360;-69
2021/11/10 07:27:16;;;;;;;6.15;3.20;;;13.80;43.80;;;;;;5032284;28;20053;-70
2021/11/10 07:29:42;;;;;;;6.25;3.25;;;13.90;43.70;;;;;;5029939;28;20064;-70
2021/11/10 07:32:08;;;;;;;4.75;3.30;;;14.10;43.50;;;;;;5032539;28;20032;-70
2021/11/10 07:34:34;;;;;;;5.88;3.63;;;14.20;43.60;;;;;;5016354;28;20109;-69
2021/11/10 07:37:00;;;;;;;5.70;3.53;;;14.30;43.30;;;;;;5014731;28;20117;-70
2021/11/10 07:39:28;;;;;;;6.15;3.42;;;14.40;43.10;;;;;;5047856;28;20026;-69
2021/11/10 07:41:53;;;;;;;5.72;3.55;;;14.50;43.30;;;;;;5016069;28;20460;-70
2021/11/10 07:44:19;;;;;;;5.18;3.20;;;14.70;43.00;;;;;;5014447;28;20068;-69
2021/11/10 07:46:52;;;;;;;7.07;3.50;;;14.70;42.80;;;;;;5015469;28;20460;-68
2021/11/10 07:49:20;;;;;;;5.72;3.58;;;14.70;42.30;;;;;;5016119;28;20033;-69
2021/11/10 07:51:46;;;;;;;5.43;3.40;;;14.80;42.10;;;;;;5025392;28;20085;-69
2021/11/10 07:54:12;;;;;;;6.93;4.15;;;14.90;42.00;;;;;;5020517;28;20025;-69
2021/11/10 07:56:37;;;;;;;7.07;4.13;;;15.10;41.70;;;;;;5019398;28;20115;-70
2021/11/10 07:59:03;;;;;;;7.57;3.90;;;15.30;41.40;;;;;;5052762;28;20022;-69
2021/11/10 08:01:30;;;;;;;8.15;4.45;;;15.50;41.40;;;;;;5021359;28;20020;-69
2021/11/10 08:03:59;;;;;;;6.38;3.97;;;15.90;41.20;;;;;;5016120;28;20109;-69
2021/11/10 08:06:25;;;;;;;6.55;3.55;;;16.10;40.60;;;;;;5014574;28;20101;-69
2021/11/10 08:08:50;;;;;;;8.60;4.00;;;16.10;40.00;;;;;;5015362;28;20104;-68
2021/11/10 08:11:16;;;;;;;6.13;4.00;;;16.00;40.00;;;;;;5014227;28;20076;-68
2021/11/10 08:13:41;;;;;;;5.72;3.67;;;16.00;40.40;;;;;;5014219;28;20072;-69
2021/11/10 08:16:07;;;;;;;5.78;3.60;;;15.90;39.50;;;;;;5027828;28;20116;-69
2021/11/10 08:18:33;;;;;;;5.28;3.60;;;15.80;39.50;;;;;;5014390;28;20025;-69
2021/11/10 08:20:58;;;;;;;5.13;3.30;;;15.80;39.40;;;;;;5014080;28;20616;-70
2021/11/10 08:23:27;;;;;;;7.00;3.80;;;15.70;39.10;;;;;;5014073;28;20022;-69
2021/11/10 08:25:56;;;;;;;8.73;4.00;;;15.80;39.10;;;;;;5015351;28;20029;-69
2021/11/10 08:28:21;;;;;;;5.38;3.60;;;16.00;38.90;;;;;;5013686;28;20030;-70
2021/11/10 08:30:48;;;;;;;7.18;4.00;;;16.10;38.70;;;;;;5013982;28;20033;-69
2021/11/10 08:33:15;;;;;;;6.32;4.20;;;16.30;38.50;;;;;;5026183;28;20076;-69
2021/11/10 08:35:41;;;;;;;6.15;3.83;;;16.20;38.40;;;;;;5018137;28;20033;-69
2021/11/10 08:38:06;;;;;;;6.47;3.53;;;16.20;38.00;;;;;;5013775;28;20025;-69
2021/11/10 08:40:32;;;;;;;5.93;3.17;;;16.40;37.90;;;;;;5014748;28;20149;-68
2021/11/10 08:42:58;;;;;;;5.72;3.03;;;16.40;37.70;;;;;;5014696;28;20042;-69
2021/11/10 08:45:26;;;;;;;4.82;3.08;;;16.50;37.30;;;;;;5014917;28;20418;-69
2021/11/10 08:47:53;;;;;;;4.88;3.25;;;16.50;37.10;;;;;;5015166;28;20021;-68
2021/11/10 08:50:21;;;;;;;5.22;2.92;;;16.40;37.00;;;;;;5058249;28;20026;-69
2021/11/10 08:52:48;;;;;;;4.93;3.40;;;16.50;38.00;;;;;;5021518;28;20533;-70
2021/11/10 08:55:15;;;;;;;4.20;2.67;;;16.60;37.00;;;;;;5021496;28;20026;-69
2021/11/10 08:57:43;;;;;;;4.88;2.80;;;16.70;36.80;;;;;;5016099;28;20022;-69
2021/11/10 09:00:13;;;;;;;3.78;2.30;;;16.90;36.60;;;;;;5015512;28;20049;-69
2021/11/10 09:02:39;;;;;;;5.40;2.00;;;17.10;36.30;;;;;;5013940;28;20053;-70
2021/11/10 09:05:07;;;;;;;7.68;2.42;;;17.00;36.00;;;;;;5047003;28;20029;-67
2021/11/10 09:07:33;;;;;;;3.33;2.10;;;17.00;36.20;;;;;;5014492;28;20022;-70
2021/11/10 09:09:59;;;;;;;3.28;2.10;;;17.10;36.10;;;;;;5013806;28;20097;-69
2021/11/10 09:12:25;;;;;;;4.05;2.38;;;16.90;35.90;;;;;;5014784;28;20117;-69
2021/11/10 09:14:51;;;;;;;3.33;2.10;;;16.80;36.00;;;;;;5017376;28;20059;-69
2021/11/10 09:17:16;;;;;;;4.43;2.33;;;16.70;35.80;;;;;;5023953;28;20034;-69
2021/11/10 09:19:42;;;;;;;3.30;2.40;;;16.70;35.50;;;;;;5014212;28;20393;-69
2021/11/10 09:22:08;;;;;;;3.67;2.15;;;16.80;35.30;;;;;;5013118;28;20024;-69
2021/11/10 09:24:35;;;;;;;3.85;2.50;;;16.90;35.20;;;;;;5014183;28;20022;-70
2021/11/10 09:27:01;;;;;;;4.10;2.78;;;16.90;35.30;;;;;;5013655;28;20517;-70
2021/11/10 09:29:28;;;;;;;5.18;2.53;;;17.10;35.30;;;;;;5014412;28;20097;-69
2021/11/10 09:31:54;;;;;;;3.95;2.38;;;17.30;35.20;;;;;;5012830;28;20017;-69
2021/11/10 09:34:20;;;;;;;3.88;2.63;;;17.20;34.50;;;;;;5012697;28;20076;-69
2021/11/10 09:36:47;;;;;;;5.47;3.42;;;17.20;34.50;;;;;;5013856;28;20028;-69
2021/11/10 09:39:22;;;;;;;5.57;3.15;;;17.20;34.60;;;;;;5013791;28;20018;-69
2021/11/10 09:41:50;;;;;;;4.35;2.90;;;17.30;34.80;;;;;;5014315;28;20419;-69
2021/11/10 09:44:17;;;;;;;4.47;2.80;;;17.40;34.70;;;;;;5017628;28;20048;-70
2021/11/10 09:46:43;;;;;;;5.55;2.75;;;17.30;34.30;;;;;;5034914;28;20051;-71
2021/11/10 09:49:12;;;;;;;5.75;2.90;;;17.30;34.10;;;;;;5021964;28;20125;-69
2021/11/10 09:51:39;;;;;;;4.22;2.50;;;17.40;33.90;;;;;;5020269;28;20038;-70
2021/11/10 09:54:06;;;;;;;6.28;3.00;;;17.60;33.60;;;;;;5013382;28;20026;-69
2021/11/10 09:56:33;;;;;;;4.88;2.63;;;17.70;33.30;;;;;;5017931;28;20080;-70
2021/11/10 09:58:59;;;;;;;6.88;3.03;;;17.80;33.20;;;;;;5012550;28;20033;-69
2021/11/10 10:01:25;;;;;;;3.17;2.30;;;17.90;33.30;;;;;;5045454;28;20013;-70
2021/11/10 10:03:53;;;;;;;3.60;2.30;;;17.80;32.70;;;;;;5012400;28;20065;-68
2021/11/10 10:06:20;;;;;;;3.15;2.00;;;17.70;32.20;;;;;;5011955;28;20029;-68
2021/11/10 10:08:46;;;;;;;5.00;2.60;;;17.60;31.80;;;;;;5013321;28;20371;-69
2021/11/10 10:11:13;;;;;;;4.20;2.35;;;17.60;31.70;;;;;;5013807;28;20052;-70
2021/11/10 10:13:40;;;;;;;2.80;1.67;;;17.60;31.60;;;;;;5013975;28;20025;-70
2021/11/10 10:16:07;;;;;;;4.47;2.35;;;17.80;31.30;;;;;;5012614;28;20194;-69
2021/11/10 10:18:32;;;;;;;5.55;2.88;;;17.80;30.90;;;;;;5011931;28;20372;-70
2021/11/10 10:21:07;;;;;;;4.35;2.60;;;17.70;31.30;;;;;;5012611;28;20030;-70
2021/11/10 10:23:39;;;;;;;6.65;3.10;;;17.70;31.80;;;;;;5012171;28;20013;-69
2021/11/10 10:26:15;;;;;;;8.38;4.20;;;17.60;32.00;;;;;;5012156;28;20026;-69
2021/11/10 10:28:47;;;;;;;6.50;3.10;;;17.50;32.10;;;;;;5013307;28;20026;-70
2021/11/10 10:31:16;;;;;;;3.47;2.08;;;17.60;31.80;;;;;;5011933;28;20022;-70
2021/11/10 10:33:49;;;;;;;4.63;2.58;;;17.70;31.50;;;;;;5011935;28;20093;-69
2021/11/10 10:36:17;;;;;;;8.65;3.17;;;17.60;31.30;;;;;;5013484;28;20036;-69
2021/11/10 10:39:17;;;;;;;5.75;2.88;;;17.60;31.30;;;;;;5027220;28;20424;-69
2021/11/10 10:41:51;;;;;;;5.30;2.50;;;17.70;31.00;;;;;;5012483;28;20368;-68
2021/11/10 10:44:19;;;;;;;3.25;1.55;;;17.60;31.00;;;;;;5016094;28;20092;-69
2021/11/10 10:46:48;;;;;;;2.58;1.40;;;17.60;30.30;;;;;;5020109;28;20092;-70
2021/11/10 10:49:23;;;;;;;3.60;1.75;;;17.50;29.60;;;;;;5013617;28;20026;-69
2021/11/10 10:51:49;;;;;;;2.72;1.42;;;17.60;29.10;;;;;;5013496;28;20021;-70
2021/11/10 10:54:15;;;;;;;3.22;1.83;;;17.50;29.10;;;;;;5013070;28;20038;-70
2021/11/10 10:56:48;;;;;;;3.60;2.30;;;17.40;29.10;;;;;;5013253;28;20018;-69
2021/11/10 10:59:15;;;;;;;2.92;1.35;;;17.30;29.20;;;;;;5012018;28;20026;-69
2021/11/10 11:02:03;;;;;;;2.85;1.60;;;17.40;29.10;;;;;;5044850;28;20486;-70
2021/11/10 11:04:33;;;;;;;3.45;1.98;;;17.30;29.20;;;;;;5012466;28;20022;-69
2021/11/10 11:07:01;;;;;;;3.30;1.95;;;17.30;29.50;;;;;;5012789;28;20045;-69
2021/11/10 11:09:40;;;;;;;4.57;2.40;;;17.40;29.50;;;;;;5044633;28;20034;-70
2021/11/10 11:12:18;;;;;;;4.80;3.20;;;17.30;29.50;;;;;;5013025;28;20026;-69
2021/11/10 11:15:06;;;;;;;3.90;2.25;;;17.30;29.60;;;;;;5011337;28;20018;-69
2021/11/10 11:17:35;;;;;;;4.10;2.10;;;17.30;29.60;;;;;;5013438;28;20022;-69
2021/11/10 11:20:07;;;;;;;4.65;2.03;;;17.40;29.70;;;;;;5012808;28;20022;-68
2021/11/10 11:22:35;;;;;;;2.70;1.70;;;17.50;29.50;;;;;;5011660;28;20094;-69
2021/11/10 11:25:23;;;;;;;2.92;1.60;;;17.60;29.60;;;;;;5012525;28;20459;-69
2021/11/10 11:28:05;;;;;;;4.75;2.03;;;17.50;29.40;;;;;;5012225;28;20038;-69
2021/11/10 11:30:37;;;;;;;4.20;1.70;;;17.30;29.40;;;;;;5011590;28;20022;-69
2021/11/10 11:33:18;;;;;;;3.10;1.67;;;17.20;29.60;;;;;;5020040;28;20110;-69
2021/11/10 11:35:46;;;;;;;3.20;1.80;;;17.20;29.40;;;;;;5015085;28;20018;-70
2021/11/10 11:38:16;;;;;;;5.85;2.92;;;17.20;29.50;;;;;;5016431;28;20109;-69
2021/11/10 11:40:44;;;;;;;5.93;2.80;;;17.10;29.50;;;;;;5020493;28;20018;-69
2021/11/10 11:43:13;;;;;;;4.55;2.20;;;17.10;29.60;;;;;;5019652;28;20135;-69
2021/11/10 11:45:41;;;;;;;3.78;2.10;;;17.00;29.40;;;;;;5048141;28;20034;-70
2021/11/10 11:48:08;;;;;;;4.05;2.20;;;16.80;29.20;;;;;;5022648;28;20100;-69
2021/11/10 11:50:35;;;;;;;4.30;2.50;;;16.60;29.40;;;;;;5015310;28;20036;-69
2021/11/10 11:53:02;;;;;;;4.95;2.60;;;16.60;29.60;;;;;;5014464;28;20144;-69
2021/11/10 11:55:43;;;;;;;4.97;2.30;;;16.40;29.70;;;;;;5014698;28;20056;-68
2021/11/10 11:58:22;;;;;;;4.45;2.15;;;16.20;29.40;;;;;;5015912;28;20030;-70
2021/11/10 12:00:53;;;;;;;3.45;1.88;;;16.10;28.90;;;;;;5014263;28;20080;-70
2021/11/10 12:03:25;;;;;;;5.40;2.10;;;15.60;29.10;;;;;;5016569;28;20072;-69
2021/11/10 12:06:01;;;;;;;3.63;2.10;;;15.30;29.70;;;;;;5015785;28;20026;-69
2021/11/10 12:08:44;;;;;;;4.15;2.05;;;15.20;29.80;;;;;;5016129;28;20021;-68
2021/11/10 12:11:19;;;;;;;3.13;1.90;;;15.00;29.70;;;;;;5015460;28;20419;-69
2021/11/10 12:14:06;;;;;;;4.23;2.20;;;14.80;29.90;;;;;;5015800;28;20487;-69
2021/11/10 12:16:58;;;;;;;4.72;2.20;;;14.50;30.00;;;;;;5015472;28;20029;-70
2021/11/10 12:19:31;;;;;;;6.47;3.25;;;14.40;30.40;;;;;;5014272;28;20049;-68
2021/11/10 12:22:11;;;;;;;6.00;2.88;;;13.90;30.70;;;;;;5015167;28;20026;-69
2021/11/10 12:24:42;;;;;;;3.55;2.13;;;13.40;31.30;;;;;;5047393;28;20080;-69
2021/11/10 12:27:30;;;;;;;3.58;1.88;;;12.90;31.60;;;;;;5015203;28;20034;-69
2021/11/10 12:30:00;;;;;;;3.75;2.10;;;12.50;31.80;;;;;;5016336;28;20025;-70
2021/11/10 12:32:52;;;;;;;6.20;2.47;;;12.20;32.10;;;;;;5025908;28;20432;-69
2021/11/10 12:35:39;;;;;;;5.65;2.60;;;11.90;32.60;;;;;;5018400;28;20021;-71
2021/11/10 12:38:14;;;;;;;4.13;2.63;;;11.70;33.60;;;;;;5022217;28;20041;-68
2021/11/10 12:40:59;;;;;;;4.00;2.35;;;11.40;34.70;;;;;;5015121;28;20474;-69
2021/11/10 12:43:27;;;;;;;4.30;2.58;;;11.20;35.60;;;;;;5013244;28;20046;-68
2021/11/10 12:45:54;;;;;;;10.32;4.55;;;10.90;36.30;;;;;;5013238;28;20045;-69
2021/11/10 12:48:37;;;;;;;5.60;3.08;;;10.50;37.10;;;;;;5013434;28;20021;-69
2021/11/10 12:51:25;;;;;;;5.78;2.88;;;10.20;38.00;;;;;;5012972;28;20369;-69
2021/11/10 12:53:58;;;;;;;6.43;3.10;;;9.80;38.80;;;;;;5015080;28;20452;-68